PWSweather.com
Personal Weather Stations
Station Observations
TARRYHILL
Tarrytown, NY 10591

Tarrytown, NY 10591

Lat: 41.05185, Lon: -73.85296

Elevation: 341

Station Type: Davis Vantage Vue

www.tarrytownnyweather.com

High Low Average
Temperature 80.3°F26.8°C 53.7°F12.1°C 66.1°F18.9°C
Dew Point 70.2°F21.2°C 53.1°F11.7°C 60.9°F16.1°C
Winds 8.1 mph 13.0 kmh Calm Calm 2.0 mph SSW3.2 kmh SSW
Wind Gusts 11.5 mph18.5 kmh -- 3.0 mph4.8 kmh
Humidity 99% 63% 85%
Pressure 30.08 in1018.6 mb 29.93 in1013.5 mb -
Precipitation 0.04 in1.0 mm - -
Hour Temp Dew Point Humidity Winds Wind Gusts Pressure Precip Precip Rate Daily Precip Total
12:00 AM 53.7°F12.1°C 53.1°F11.7°C 98% Calm Calm -- 30.08 in1018.6 mb - 0.00 in0.0 mm 0.00 in0.0 mm
12:30 AM 53.7°F12.1°C 53.1°F11.7°C 98% Calm Calm -- 30.07 in1018.3 mb - 0.00 in0.0 mm 0.00 in0.0 mm
01:00 AM 53.7°F12.1°C 53.1°F11.7°C 98% Calm Calm -- 30.05 in1017.6 mb - 0.00 in0.0 mm 0.00 in0.0 mm
01:30 AM 53.7°F12.1°C 53.1°F11.7°C 98% Calm Calm -- 30.04 in1017.3 mb - 0.00 in0.0 mm 0.00 in0.0 mm
02:00 AM 53.9°F12.2°C 53.3°F11.8°C 98% Calm Calm 2.3 mph3.7 kmh 30.03 in1016.9 mb - 0.00 in0.0 mm 0.00 in0.0 mm
02:30 AM 54.0°F12.2°C 53.4°F11.9°C 98% Calm Calm -- 30.02 in1016.6 mb - 0.00 in0.0 mm 0.00 in0.0 mm
03:00 AM 54.2°F12.3°C 53.6°F12.0°C 98% Calm Calm -- 30.01 in1016.3 mb - 0.00 in0.0 mm 0.00 in0.0 mm
03:30 AM 54.3°F12.4°C 53.7°F12.1°C 98% Calm Calm -- 30.01 in1016.3 mb - 0.01 in0.3 mm 0.01 in0.3 mm
04:00 AM 55.0°F12.8°C 54.4°F12.4°C 98% Calm Calm -- 30.00 in1015.9 mb - 0.00 in0.0 mm 0.01 in0.3 mm
04:30 AM 56.5°F13.6°C 55.9°F13.3°C 98% 1.2 mph S1.9 kmh S 4.6 mph7.4 kmh 29.99 in1015.6 mb - 0.00 in0.0 mm 0.01 in0.3 mm
05:00 AM 57.9°F14.4°C 57.6°F14.2°C 99% Calm Calm -- 29.98 in1015.2 mb - 0.00 in0.0 mm 0.01 in0.3 mm
05:30 AM 56.6°F13.7°C 56.0°F13.3°C 98% Calm Calm -- 29.98 in1015.2 mb - 0.00 in0.0 mm 0.01 in0.3 mm
06:00 AM 55.9°F13.3°C 55.3°F12.9°C 98% Calm Calm -- 29.98 in1015.2 mb - 0.00 in0.0 mm 0.01 in0.3 mm
06:30 AM 57.1°F13.9°C 56.5°F13.6°C 98% Calm Calm -- 29.98 in1015.2 mb - 0.00 in0.0 mm 0.01 in0.3 mm
07:00 AM 57.9°F14.4°C 57.6°F14.2°C 99% Calm Calm 1.2 mph1.9 kmh 29.98 in1015.2 mb - 0.00 in0.0 mm 0.01 in0.3 mm
07:30 AM 62.2°F16.8°C 62.0°F16.7°C 99% 2.3 mph SW3.7 kmh SW 5.8 mph9.3 kmh 29.98 in1015.2 mb - 0.00 in0.0 mm 0.01 in0.3 mm
08:00 AM 60.9°F16.1°C 60.6°F15.9°C 99% 1.2 mph WSW1.9 kmh WSW 2.3 mph3.7 kmh 29.98 in1015.2 mb - 0.00 in0.0 mm 0.01 in0.3 mm
08:30 AM 60.1°F15.6°C 59.5°F15.3°C 98% Calm Calm -- 29.98 in1015.2 mb - 0.00 in0.0 mm 0.01 in0.3 mm
09:00 AM 61.0°F16.1°C 60.4°F15.8°C 98% Calm Calm 2.3 mph3.7 kmh 29.98 in1015.2 mb - 0.01 in0.3 mm 0.02 in0.5 mm
09:30 AM 62.2°F16.8°C 61.9°F16.6°C 99% Calm Calm 1.2 mph1.9 kmh 29.97 in1014.9 mb - 0.00 in0.0 mm 0.02 in0.5 mm
10:00 AM 65.4°F18.6°C 65.1°F18.4°C 99% 2.3 mph SW3.7 kmh SW 3.5 mph5.6 kmh 29.96 in1014.6 mb - 0.00 in0.0 mm 0.02 in0.5 mm
10:30 AM 69.1°F20.6°C 68.8°F20.4°C 99% 4.6 mph S7.4 kmh S 11.5 mph18.5 kmh 29.96 in1014.6 mb - 0.00 in0.0 mm 0.02 in0.5 mm
11:00 AM 72.7°F22.6°C 70.2°F21.2°C 92% 3.5 mph SW5.6 kmh SW 5.8 mph9.3 kmh 29.96 in1014.6 mb - 0.00 in0.0 mm 0.02 in0.5 mm
11:30 AM 74.0°F23.3°C 69.5°F20.8°C 86% 2.3 mph SW3.7 kmh SW 4.6 mph7.4 kmh 29.95 in1014.2 mb - 0.00 in0.0 mm 0.02 in0.5 mm
12:00 PM 74.8°F23.8°C 68.6°F20.3°C 81% 3.5 mph SW5.6 kmh SW 5.8 mph9.3 kmh 29.95 in1014.2 mb - 0.00 in0.0 mm 0.02 in0.5 mm
12:30 PM 74.5°F23.6°C 67.2°F19.6°C 78% 4.6 mph S7.4 kmh S 6.9 mph11.1 kmh 29.95 in1014.2 mb - 0.00 in0.0 mm 0.02 in0.5 mm
01:00 PM 76.7°F24.8°C 68.2°F20.1°C 75% 3.5 mph NW5.6 kmh NW 6.9 mph11.1 kmh 29.95 in1014.2 mb - 0.00 in0.0 mm 0.02 in0.5 mm
01:30 PM 76.0°F24.4°C 67.1°F19.5°C 74% 2.3 mph SW3.7 kmh SW 6.9 mph11.1 kmh 29.94 in1013.9 mb - 0.00 in0.0 mm 0.02 in0.5 mm
02:00 PM 77.0°F25.0°C 66.4°F19.1°C 70% 8.1 mph W13.0 kmh W 10.4 mph16.7 kmh 29.94 in1013.9 mb - 0.00 in0.0 mm 0.02 in0.5 mm
02:30 PM 79.8°F26.6°C 67.4°F19.7°C 66% 4.6 mph W7.4 kmh W 5.8 mph9.3 kmh 29.94 in1013.9 mb - 0.00 in0.0 mm 0.02 in0.5 mm
03:00 PM 80.3°F26.8°C 66.6°F19.2°C 63% 4.6 mph NW7.4 kmh NW 9.2 mph14.8 kmh 29.93 in1013.5 mb - 0.00 in0.0 mm 0.02 in0.5 mm
03:30 PM 74.0°F23.3°C 67.8°F19.9°C 81% Calm Calm -- 29.94 in1013.9 mb - 0.02 in0.5 mm 0.04 in1.0 mm
04:00 PM 73.3°F22.9°C 66.7°F19.3°C 80% 3.5 mph NE5.6 kmh NE 5.8 mph9.3 kmh 29.95 in1014.2 mb - 0.00 in0.0 mm 0.04 in1.0 mm
04:30 PM 72.9°F22.7°C 66.4°F19.1°C 80% 1.2 mph NE1.9 kmh NE 3.5 mph5.6 kmh 29.95 in1014.2 mb - 0.00 in0.0 mm 0.04 in1.0 mm
05:00 PM 74.0°F23.3°C 66.3°F19.1°C 77% 2.3 mph NNE3.7 kmh NNE 2.3 mph3.7 kmh 29.96 in1014.6 mb - 0.00 in0.0 mm 0.04 in1.0 mm
05:30 PM 74.7°F23.7°C 66.2°F19.0°C 75% 3.5 mph NNW5.6 kmh NNW 6.9 mph11.1 kmh 29.96 in1014.6 mb - 0.00 in0.0 mm 0.04 in1.0 mm
06:00 PM 74.4°F23.6°C 63.6°F17.6°C 69% 3.5 mph N5.6 kmh N 4.6 mph7.4 kmh 29.97 in1014.9 mb - 0.00 in0.0 mm 0.04 in1.0 mm
06:30 PM 74.0°F23.3°C 63.2°F17.3°C 69% 3.5 mph WSW5.6 kmh WSW 11.5 mph18.5 kmh 29.98 in1015.2 mb - 0.00 in0.0 mm 0.04 in1.0 mm
07:00 PM 72.9°F22.7°C 62.1°F16.7°C 69% 1.2 mph SSW1.9 kmh SSW 2.3 mph3.7 kmh 29.99 in1015.6 mb - 0.00 in0.0 mm 0.04 in1.0 mm
07:30 PM 72.5°F22.5°C 61.7°F16.5°C 69% Calm Calm 2.3 mph3.7 kmh 30.00 in1015.9 mb - 0.00 in0.0 mm 0.04 in1.0 mm
08:00 PM 70.7°F21.5°C 61.6°F16.4°C 73% 1.2 mph W1.9 kmh W 1.2 mph1.9 kmh 30.01 in1016.3 mb - 0.00 in0.0 mm 0.04 in1.0 mm
08:30 PM 69.1°F20.6°C 60.9°F16.1°C 75% Calm Calm -- 30.02 in1016.6 mb - 0.00 in0.0 mm 0.04 in1.0 mm
09:00 PM 68.6°F20.3°C 59.6°F15.3°C 73% 1.2 mph E1.9 kmh E 1.2 mph1.9 kmh 30.03 in1016.9 mb - 0.00 in0.0 mm 0.04 in1.0 mm
09:30 PM 67.7°F19.8°C 58.3°F14.6°C 72% Calm Calm 3.5 mph5.6 kmh 30.04 in1017.3 mb - 0.00 in0.0 mm 0.04 in1.0 mm
10:00 PM 66.7°F19.3°C 57.4°F14.1°C 72% 2.3 mph NE3.7 kmh NE 3.5 mph5.6 kmh 30.05 in1017.6 mb - 0.00 in0.0 mm 0.04 in1.0 mm
10:30 PM 65.7°F18.7°C 56.4°F13.6°C 72% 2.3 mph NW3.7 kmh NW 5.8 mph9.3 kmh 30.07 in1018.3 mb - 0.00 in0.0 mm 0.04 in1.0 mm
11:00 PM 64.7°F18.2°C 56.2°F13.4°C 74% Calm Calm 2.3 mph3.7 kmh 30.07 in1018.3 mb - 0.00 in0.0 mm 0.04 in1.0 mm
11:30 PM 63.5°F17.5°C 55.4°F13.0°C 75% Calm Calm 1.2 mph1.9 kmh 30.07 in1018.3 mb - 0.00 in0.0 mm 0.04 in1.0 mm